| Time | Avg. Air Temp | Dew Point | Avg. Rel Humidity | Avg. 2 Min Wind Speed | Max Gust Velocity | MGV Time | MGV Direction | Avg. Spot Wind Velocity |
|---|---|---|---|---|---|---|---|---|
| 2026-05-05 21:55:00 | 6° C | -8° C | 38% | 8 km/h | 9 km/h | 21:52:00 | NE | 8 km/h |
| 20:55:00 | 6° C | -8° C | 37% | 6 km/h | 9 km/h | 20:55:00 | N | 7 km/h |
| 19:55:00 | 5° C | -8° C | 39% | 13 km/h | 16 km/h | 19:55:00 | N | 11 km/h |
| 18:55:00 | 5° C | -8° C | 38% | 10 km/h | 21 km/h | 18:52:00 | NE | 9 km/h |
| 17:55:00 | 6° C | -7° C | 38% | 11 km/h | 21 km/h | 17:53:00 | NE | 11 km/h |
| 16:55:00 | 6° C | -8° C | 35% | 15 km/h | 29 km/h | 16:53:00 | NE | 11 km/h |
| 15:55:00 | 6° C | -7° C | 39% | 13 km/h | 21 km/h | 15:54:00 | NW | 11 km/h |
| 14:55:00 | 5° C | -6° C | 43% | 5 km/h | 9 km/h | 14:55:00 | NE | 5 km/h |
| 13:55:00 | 5° C | -7° C | 44% | 7 km/h | 9 km/h | 13:53:00 | NE | 8 km/h |
| 12:55:00 | 5° C | -6° C | 43% | 7 km/h | 12 km/h | 12:53:00 | E | 6 km/h |
| 11:55:00 | 4° C | -7° C | 45% | 1 km/h | 3 km/h | 11:53:00 | N | 1 km/h |
| 10:55:00 | 3° C | -7° C | 50% | 3 km/h | 8 km/h | 10:51:00 | E | 3 km/h |
| 09:55:00 | 2° C | -7° C | 50% | 8 km/h | 16 km/h | 09:51:00 | NE | 9 km/h |
| 08:55:00 | 1° C | -8° C | 51% | 24 km/h | 27 km/h | 08:52:00 | NE | 23 km/h |
| 07:55:00 | 1° C | -9° C | 51% | 28 km/h | 33 km/h | 07:54:00 | NE | 29 km/h |
| 06:55:00 | 0° C | -8° C | 54% | 25 km/h | 31 km/h | 06:55:00 | NE | 24 km/h |
| 05:55:00 | 0° C | -8° C | 52% | 16 km/h | 31 km/h | 05:52:00 | NE | 15 km/h |
| 04:55:00 | 0° C | -8° C | 53% | 26 km/h | 33 km/h | 04:52:00 | NE | 26 km/h |
| 03:55:00 | 1° C | -8° C | 51% | 27 km/h | 37 km/h | 03:51:00 | NE | 30 km/h |
| 02:55:00 | 1° C | -8° C | 50% | 34 km/h | 38 km/h | 02:54:00 | NE | 32 km/h |
| 01:55:00 | 1° C | -8° C | 51% | 28 km/h | 38 km/h | 01:53:00 | NE | 32 km/h |
| 00:55:00 | 1° C | -7° C | 56% | 39 km/h | 46 km/h | 00:54:00 | NE | 39 km/h |
| 23:55:00 | 1° C | -6° C | 58% | 29 km/h | 42 km/h | 23:55:00 | NE | 31 km/h |
| 22:55:00 | 2° C | -5° C | 58% | 19 km/h | 41 km/h | 22:52:00 | NE | 25 km/h |
Subpeak Weather
| Time | Avg. Air Temp | Dew Point | Avg. Rel Humidity | Avg. 2 Min Wind Speed | Max Gust Velocity | MGV Time | MGV Direction | Avg. Spot Wind Velocity |
|---|---|---|---|---|---|---|---|---|
| 2026-05-05 21:55:00 | 6° C | -8° C | 38% | 8 km/h | 9 km/h | 21:52:00 | NE | 8 km/h |
| 21:50:00 | 6° C | -8° C | 37% | 10 km/h | 12 km/h | 21:50:00 | N | 10 km/h |
| 21:45:00 | 6° C | -8° C | 37% | 11 km/h | 12 km/h | 21:44:00 | N | 11 km/h |
| 21:40:00 | 6° C | -8° C | 37% | 11 km/h | 12 km/h | 21:37:00 | NE | 11 km/h |
| 21:35:00 | 6° C | -8° C | 37% | 11 km/h | 11 km/h | 21:33:00 | NE | 11 km/h |
| 21:30:00 | 6° C | -8° C | 38% | 10 km/h | 12 km/h | 21:27:00 | NE | 10 km/h |
| 21:25:00 | 5° C | -8° C | 38% | 8 km/h | 10 km/h | 21:25:00 | NE | 6 km/h |
| 21:20:00 | 5° C | -8° C | 38% | 7 km/h | 10 km/h | 21:16:00 | N | 6 km/h |
| 21:15:00 | 5° C | -8° C | 38% | 9 km/h | 10 km/h | 21:14:00 | N | 8 km/h |
| 21:10:00 | 5° C | -8° C | 39% | 6 km/h | 9 km/h | 21:09:00 | N | 6 km/h |
| 21:05:00 | 5° C | -8° C | 38% | 3 km/h | 8 km/h | 21:03:00 | NW | 4 km/h |
| 21:00:00 | 5° C | -7° C | 38% | 5 km/h | 8 km/h | 20:58:00 | N | 4 km/h |
| 20:55:00 | 6° C | -8° C | 37% | 6 km/h | 9 km/h | 20:55:00 | N | 7 km/h |




